sensor_id;sensor_type;location;lat;lon;timestamp;pressure;altitude;pressure_sealevel;temperature;humidity
79067;BME280;68470;50.224;14.348;2023-05-07T00:01:57;99731.84;;;8.33;87.80
79067;BME280;68470;50.224;14.348;2023-05-07T00:04:23;99751.28;;;8.32;88.42
79067;BME280;68470;50.224;14.348;2023-05-07T00:06:49;99743.91;;;8.21;89.62
79067;BME280;68470;50.224;14.348;2023-05-07T00:09:15;99755.44;;;8.23;89.54
79067;BME280;68470;50.224;14.348;2023-05-07T00:11:45;99752.09;;;8.32;88.50
79067;BME280;68470;50.224;14.348;2023-05-07T00:14:11;99733.00;;;8.49;88.08
79067;BME280;68470;50.224;14.348;2023-05-07T00:16:40;99742.22;;;8.71;86.21
79067;BME280;68470;50.224;14.348;2023-05-07T00:19:09;99726.00;;;8.70;86.56
79067;BME280;68470;50.224;14.348;2023-05-07T00:21:39;99729.22;;;8.79;86.70
79067;BME280;68470;50.224;14.348;2023-05-07T00:24:07;99726.75;;;8.65;86.99
79067;BME280;68470;50.224;14.348;2023-05-07T00:26:37;99745.88;;;8.60;88.04
79067;BME280;68470;50.224;14.348;2023-05-07T00:29:04;99745.75;;;8.55;88.54
79067;BME280;68470;50.224;14.348;2023-05-07T00:31:30;99750.78;;;8.58;88.17
79067;BME280;68470;50.224;14.348;2023-05-07T00:33:59;99739.41;;;8.66;87.52
79067;BME280;68470;50.224;14.348;2023-05-07T00:36:27;99751.28;;;8.72;87.98
79067;BME280;68470;50.224;14.348;2023-05-07T00:38:54;99748.34;;;8.73;87.47
79067;BME280;68470;50.224;14.348;2023-05-07T00:41:26;99725.69;;;8.66;86.83
79067;BME280;68470;50.224;14.348;2023-05-07T00:43:53;99728.81;;;8.87;86.41
79067;BME280;68470;50.224;14.348;2023-05-07T00:46:22;99746.72;;;9.06;85.90
79067;BME280;68470;50.224;14.348;2023-05-07T00:48:49;99737.56;;;9.00;85.92
79067;BME280;68470;50.224;14.348;2023-05-07T00:51:18;99743.16;;;9.05;86.12
79067;BME280;68470;50.224;14.348;2023-05-07T00:53:44;99738.22;;;8.91;87.17
79067;BME280;68470;50.224;14.348;2023-05-07T00:56:14;99717.78;;;8.70;87.55
79067;BME280;68470;50.224;14.348;2023-05-07T00:58:42;99738.91;;;8.98;86.63
79067;BME280;68470;50.224;14.348;2023-05-07T01:01:08;99726.88;;;9.16;85.31
79067;BME280;68470;50.224;14.348;2023-05-07T01:03:37;99734.47;;;9.25;85.74
79067;BME280;68470;50.224;14.348;2023-05-07T01:06:05;99725.94;;;9.10;86.12
79067;BME280;68470;50.224;14.348;2023-05-07T01:08:35;99748.84;;;9.32;84.71
79067;BME280;68470;50.224;14.348;2023-05-07T01:11:02;99739.59;;;9.22;85.50
79067;BME280;68470;50.224;14.348;2023-05-07T01:13:29;99736.00;;;9.21;85.79
79067;BME280;68470;50.224;14.348;2023-05-07T01:15:57;99732.81;;;9.24;85.01
79067;BME280;68470;50.224;14.348;2023-05-07T01:18:26;99740.13;;;9.52;83.76
79067;BME280;68470;50.224;14.348;2023-05-07T01:20:57;99734.72;;;9.57;83.55
79067;BME280;68470;50.224;14.348;2023-05-07T01:23:26;99734.94;;;9.56;84.71
79067;BME280;68470;50.224;14.348;2023-05-07T01:25:53;99748.84;;;9.32;86.08
79067;BME280;68470;50.224;14.348;2023-05-07T01:28:20;99754.66;;;9.19;86.41
79067;BME280;68470;50.224;14.348;2023-05-07T01:31:01;99737.28;;;9.14;86.66
79067;BME280;68470;50.224;14.348;2023-05-07T01:33:34;99756.75;;;9.12;87.41
79067;BME280;68470;50.224;14.348;2023-05-07T01:36:03;99759.00;;;9.15;86.35
79067;BME280;68470;50.224;14.348;2023-05-07T01:38:39;99730.44;;;9.16;83.94
79067;BME280;68470;50.224;14.348;2023-05-07T01:41:11;99735.97;;;9.50;84.00
79067;BME280;68470;50.224;14.348;2023-05-07T01:43:40;99761.34;;;9.57;83.41
79067;BME280;68470;50.224;14.348;2023-05-07T01:46:12;99753.28;;;9.67;82.04
79067;BME280;68470;50.224;14.348;2023-05-07T01:48:42;99742.72;;;9.59;81.51
79067;BME280;68470;50.224;14.348;2023-05-07T01:51:15;99756.09;;;9.72;80.19
79067;BME280;68470;50.224;14.348;2023-05-07T01:53:48;99750.19;;;9.80;79.60
79067;BME280;68470;50.224;14.348;2023-05-07T01:56:18;99757.03;;;9.78;80.62
79067;BME280;68470;50.224;14.348;2023-05-07T01:58:45;99764.44;;;9.77;79.74
79067;BME280;68470;50.224;14.348;2023-05-07T02:01:16;99734.94;;;9.73;80.07
79067;BME280;68470;50.224;14.348;2023-05-07T02:03:46;99754.53;;;9.76;79.81
79067;BME280;68470;50.224;14.348;2023-05-07T02:06:15;99741.69;;;9.65;80.11
79067;BME280;68470;50.224;14.348;2023-05-07T02:08:50;99758.94;;;9.94;79.01
79067;BME280;68470;50.224;14.348;2023-05-07T02:11:20;99766.75;;;9.85;79.91
79067;BME280;68470;50.224;14.348;2023-05-07T02:13:46;99768.09;;;9.83;79.89
79067;BME280;68470;50.224;14.348;2023-05-07T02:16:12;99771.16;;;9.86;79.55
79067;BME280;68470;50.224;14.348;2023-05-07T02:18:42;99764.06;;;9.90;79.29
79067;BME280;68470;50.224;14.348;2023-05-07T02:21:08;99742.53;;;9.65;79.94
79067;BME280;68470;50.224;14.348;2023-05-07T02:23:37;99749.44;;;9.68;79.60
79067;BME280;68470;50.224;14.348;2023-05-07T02:26:04;99745.03;;;9.67;79.30
79067;BME280;68470;50.224;14.348;2023-05-07T02:28:30;99756.44;;;9.92;79.08
79067;BME280;68470;50.224;14.348;2023-05-07T02:30:56;99769.00;;;9.88;79.14
79067;BME280;68470;50.224;14.348;2023-05-07T02:33:24;99762.50;;;9.94;78.87
79067;BME280;68470;50.224;14.348;2023-05-07T02:35:53;99742.06;;;9.90;78.49
79067;BME280;68470;50.224;14.348;2023-05-07T02:38:20;99771.06;;;9.98;78.64
79067;BME280;68470;50.224;14.348;2023-05-07T02:40:46;99775.00;;;9.85;79.36
79067;BME280;68470;50.224;14.348;2023-05-07T02:43:15;99766.00;;;9.90;78.87
79067;BME280;68470;50.224;14.348;2023-05-07T02:45:41;99765.09;;;9.84;79.57
79067;BME280;68470;50.224;14.348;2023-05-07T02:48:08;99755.38;;;9.60;80.27
79067;BME280;68470;50.224;14.348;2023-05-07T02:50:37;99749.28;;;9.58;80.52
79067;BME280;68470;50.224;14.348;2023-05-07T02:53:11;99773.09;;;9.69;79.82
79067;BME280;68470;50.224;14.348;2023-05-07T02:55:37;99775.94;;;9.74;79.29
79067;BME280;68470;50.224;14.348;2023-05-07T02:58:06;99760.44;;;9.68;79.85
79067;BME280;68470;50.224;14.348;2023-05-07T03:00:36;99748.47;;;9.57;79.92
79067;BME280;68470;50.224;14.348;2023-05-07T03:03:02;99766.25;;;9.72;79.30
79067;BME280;68470;50.224;14.348;2023-05-07T03:05:35;99765.78;;;9.75;79.66
79067;BME280;68470;50.224;14.348;2023-05-07T03:08:00;99776.53;;;9.76;79.19
79067;BME280;68470;50.224;14.348;2023-05-07T03:10:30;99764.44;;;9.77;79.20
79067;BME280;68470;50.224;14.348;2023-05-07T03:12:56;99767.59;;;9.86;79.40
79067;BME280;68470;50.224;14.348;2023-05-07T03:15:26;99771.84;;;9.77;79.57
79067;BME280;68470;50.224;14.348;2023-05-07T03:17:51;99776.03;;;9.79;79.75
79067;BME280;68470;50.224;14.348;2023-05-07T03:20:18;99776.16;;;9.73;79.99
79067;BME280;68470;50.224;14.348;2023-05-07T03:22:46;99760.50;;;9.73;78.94
79067;BME280;68470;50.224;14.348;2023-05-07T03:25:12;99784.59;;;9.66;80.14
79067;BME280;68470;50.224;14.348;2023-05-07T03:27:44;99784.09;;;9.69;79.77
79067;BME280;68470;50.224;14.348;2023-05-07T03:30:12;99771.88;;;9.60;79.45
79067;BME280;68470;50.224;14.348;2023-05-07T03:32:40;99770.28;;;9.64;79.09
79067;BME280;68470;50.224;14.348;2023-05-07T03:35:11;99779.41;;;9.70;78.61
79067;BME280;68470;50.224;14.348;2023-05-07T03:37:38;99789.34;;;9.71;78.18
79067;BME280;68470;50.224;14.348;2023-05-07T03:40:07;99790.75;;;9.73;78.30
79067;BME280;68470;50.224;14.348;2023-05-07T03:42:39;99786.94;;;9.74;77.83
79067;BME280;68470;50.224;14.348;2023-05-07T03:45:05;99788.44;;;9.65;77.84
79067;BME280;68470;50.224;14.348;2023-05-07T03:47:31;99776.34;;;9.66;78.23
79067;BME280;68470;50.224;14.348;2023-05-07T03:49:57;99776.03;;;9.79;77.60
79067;BME280;68470;50.224;14.348;2023-05-07T03:52:24;99767.53;;;9.64;77.83
79067;BME280;68470;50.224;14.348;2023-05-07T03:54:52;99778.09;;;9.72;77.47
79067;BME280;68470;50.224;14.348;2023-05-07T03:57:18;99774.94;;;9.80;77.00
79067;BME280;68470;50.224;14.348;2023-05-07T03:59:47;99780.44;;;9.80;77.39
79067;BME280;68470;50.224;14.348;2023-05-07T04:02:18;99752.94;;;9.63;76.90
79067;BME280;68470;50.224;14.348;2023-05-07T04:04:50;99777.69;;;9.80;77.10
79067;BME280;68470;50.224;14.348;2023-05-07T04:07:15;99786.44;;;9.77;76.95
79067;BME280;68470;50.224;14.348;2023-05-07T04:09:41;99787.59;;;9.64;77.67
79067;BME280;68470;50.224;14.348;2023-05-07T04:12:14;99796.50;;;9.55;78.15
79067;BME280;68470;50.224;14.348;2023-05-07T04:14:44;99771.59;;;9.45;78.17
79067;BME280;68470;50.224;14.348;2023-05-07T04:17:10;99774.75;;;9.53;77.46
79067;BME280;68470;50.224;14.348;2023-05-07T04:19:37;99790.09;;;9.66;76.86
79067;BME280;68470;50.224;14.348;2023-05-07T04:22:16;99801.00;;;9.61;77.19
79067;BME280;68470;50.224;14.348;2023-05-07T04:24:44;99794.44;;;9.62;76.71
79067;BME280;68470;50.224;14.348;2023-05-07T04:27:09;99797.19;;;9.62;76.08
79067;BME280;68470;50.224;14.348;2023-05-07T04:29:38;99806.19;;;9.74;75.15
79067;BME280;68470;50.224;14.348;2023-05-07T04:32:08;99792.41;;;9.41;76.87
79067;BME280;68470;50.224;14.348;2023-05-07T04:34:37;99808.75;;;9.64;75.87
79067;BME280;68470;50.224;14.348;2023-05-07T04:37:05;99813.34;;;9.75;75.46
79067;BME280;68470;50.224;14.348;2023-05-07T04:39:40;99810.09;;;9.78;75.51
79067;BME280;68470;50.224;14.348;2023-05-07T04:42:06;99812.25;;;9.76;75.35
79067;BME280;68470;50.224;14.348;2023-05-07T04:44:35;99818.47;;;9.88;75.51
79067;BME280;68470;50.224;14.348;2023-05-07T04:47:07;99812.06;;;10.00;74.81
79067;BME280;68470;50.224;14.348;2023-05-07T04:49:34;99796.75;;;9.87;73.53
79067;BME280;68470;50.224;14.348;2023-05-07T04:52:00;99815.84;;;9.93;74.92
79067;BME280;68470;50.224;14.348;2023-05-07T04:54:27;99819.06;;;9.90;74.40
79067;BME280;68470;50.224;14.348;2023-05-07T04:57:03;99802.56;;;9.90;74.54
79067;BME280;68470;50.224;14.348;2023-05-07T04:59:32;99819.94;;;9.91;74.33
79067;BME280;68470;50.224;14.348;2023-05-07T05:02:02;99825.31;;;10.03;74.22
79067;BME280;68470;50.224;14.348;2023-05-07T05:04:31;99834.81;;;10.12;73.55
79067;BME280;68470;50.224;14.348;2023-05-07T05:06:57;99826.06;;;10.15;74.22
79067;BME280;68470;50.224;14.348;2023-05-07T05:09:24;99816.16;;;10.14;73.56
79067;BME280;68470;50.224;14.348;2023-05-07T05:11:52;99822.16;;;10.11;73.82
79067;BME280;68470;50.224;14.348;2023-05-07T05:14:24;99824.22;;;10.04;73.53
79067;BME280;68470;50.224;14.348;2023-05-07T05:16:51;99836.81;;;10.00;73.57
79067;BME280;68470;50.224;14.348;2023-05-07T05:19:18;99825.44;;;9.91;73.80
79067;BME280;68470;50.224;14.348;2023-05-07T05:21:50;99835.34;;;10.09;73.17
79067;BME280;68470;50.224;14.348;2023-05-07T05:24:16;99827.50;;;10.01;73.60
79067;BME280;68470;50.224;14.348;2023-05-07T05:26:53;99831.41;;;10.05;73.32
79067;BME280;68470;50.224;14.348;2023-05-07T05:29:22;99826.00;;;10.27;72.58
79067;BME280;68470;50.224;14.348;2023-05-07T05:31:48;99845.66;;;10.35;72.09
79067;BME280;68470;50.224;14.348;2023-05-07T05:34:14;99822.81;;;10.18;73.08
79067;BME280;68470;50.224;14.348;2023-05-07T05:36:40;99827.56;;;10.22;71.63
79067;BME280;68470;50.224;14.348;2023-05-07T05:39:06;99824.38;;;10.47;71.55
79067;BME280;68470;50.224;14.348;2023-05-07T05:41:32;99824.56;;;10.63;70.93
79067;BME280;68470;50.224;14.348;2023-05-07T05:44:04;99828.63;;;10.77;70.33
79067;BME280;68470;50.224;14.348;2023-05-07T05:46:30;99845.81;;;10.45;71.27
79067;BME280;68470;50.224;14.348;2023-05-07T05:48:58;99847.03;;;10.54;71.05
79067;BME280;68470;50.224;14.348;2023-05-07T05:51:24;99829.63;;;10.49;70.56
79067;BME280;68470;50.224;14.348;2023-05-07T05:53:52;99826.28;;;10.47;71.69
79067;BME280;68470;50.224;14.348;2023-05-07T05:56:17;99830.34;;;10.61;70.33
79067;BME280;68470;50.224;14.348;2023-05-07T05:58:43;99846.63;;;10.46;71.35
79067;BME280;68470;50.224;14.348;2023-05-07T06:01:09;99852.69;;;10.65;70.83
79067;BME280;68470;50.224;14.348;2023-05-07T06:03:37;99854.41;;;10.71;71.14
79067;BME280;68470;50.224;14.348;2023-05-07T06:06:06;99849.81;;;10.38;71.41
79067;BME280;68470;50.224;14.348;2023-05-07T06:08:32;99849.75;;;10.33;72.38
79067;BME280;68470;50.224;14.348;2023-05-07T06:11:00;99847.50;;;10.30;72.00
79067;BME280;68470;50.224;14.348;2023-05-07T06:13:27;99853.00;;;10.68;71.38
79067;BME280;68470;50.224;14.348;2023-05-07T06:15:52;99859.56;;;10.45;69.12
79067;BME280;68470;50.224;14.348;2023-05-07T06:18:25;99869.13;;;10.60;69.65
79067;BME280;68470;50.224;14.348;2023-05-07T06:20:52;99863.06;;;10.79;69.17
79067;BME280;68470;50.224;14.348;2023-05-07T06:23:18;99888.66;;;11.24;68.55
79067;BME280;68470;50.224;14.348;2023-05-07T06:25:48;99856.78;;;11.28;67.75
79067;BME280;68470;50.224;14.348;2023-05-07T06:28:18;99866.38;;;10.60;69.43
79067;BME280;68470;50.224;14.348;2023-05-07T06:30:48;99882.91;;;10.60;69.38
79067;BME280;68470;50.224;14.348;2023-05-07T06:33:18;99890.91;;;10.11;71.82
79067;BME280;68470;50.224;14.348;2023-05-07T06:35:47;99870.84;;;10.27;70.68
79067;BME280;68470;50.224;14.348;2023-05-07T06:38:13;99899.28;;;10.33;71.61
79067;BME280;68470;50.224;14.348;2023-05-07T06:40:39;99894.78;;;10.27;72.16
79067;BME280;68470;50.224;14.348;2023-05-07T06:43:05;99884.00;;;10.08;72.12
79067;BME280;68470;50.224;14.348;2023-05-07T06:45:34;99891.91;;;10.38;71.21
79067;BME280;68470;50.224;14.348;2023-05-07T06:48:01;99883.31;;;10.51;70.59
79067;BME280;68470;50.224;14.348;2023-05-07T06:50:32;99893.59;;;10.39;70.63
79067;BME280;68470;50.224;14.348;2023-05-07T06:52:58;99890.47;;;10.52;70.75
79067;BME280;68470;50.224;14.348;2023-05-07T06:55:24;99908.63;;;10.70;70.63
79067;BME280;68470;50.224;14.348;2023-05-07T06:57:50;99893.53;;;10.73;70.49
79067;BME280;68470;50.224;14.348;2023-05-07T07:00:16;99910.00;;;10.90;70.34
79067;BME280;68470;50.224;14.348;2023-05-07T07:02:42;99911.13;;;11.10;68.94
79067;BME280;68470;50.224;14.348;2023-05-07T07:05:08;99921.38;;;10.93;69.75
79067;BME280;68470;50.224;14.348;2023-05-07T07:07:34;99904.69;;;11.05;69.16
79067;BME280;68470;50.224;14.348;2023-05-07T07:10:02;99915.47;;;11.28;68.10
79067;BME280;68470;50.224;14.348;2023-05-07T07:12:29;99904.28;;;11.40;67.86
79067;BME280;68470;50.224;14.348;2023-05-07T07:14:56;99917.56;;;11.21;68.64
79067;BME280;68470;50.224;14.348;2023-05-07T07:17:22;99894.91;;;11.14;67.67
79067;BME280;68470;50.224;14.348;2023-05-07T07:19:48;99918.34;;;10.95;70.38
79067;BME280;68470;50.224;14.348;2023-05-07T07:22:15;99903.94;;;11.09;68.87
79067;BME280;68470;50.224;14.348;2023-05-07T07:24:41;99911.81;;;11.44;67.94
79067;BME280;68470;50.224;14.348;2023-05-07T07:27:08;99922.06;;;11.27;68.66
79067;BME280;68470;50.224;14.348;2023-05-07T07:29:33;99915.84;;;11.37;67.73
79067;BME280;68470;50.224;14.348;2023-05-07T07:32:02;99922.94;;;11.55;67.50
79067;BME280;68470;50.224;14.348;2023-05-07T07:34:28;99929.41;;;11.65;66.96
79067;BME280;68470;50.224;14.348;2023-05-07T07:36:54;99930.53;;;11.69;66.93
79067;BME280;68470;50.224;14.348;2023-05-07T07:39:20;99929.34;;;11.82;66.04
79067;BME280;68470;50.224;14.348;2023-05-07T07:41:46;99919.88;;;12.05;66.25
79067;BME280;68470;50.224;14.348;2023-05-07T07:44:12;99916.56;;;11.76;66.02
79067;BME280;68470;50.224;14.348;2023-05-07T07:46:38;99929.75;;;11.96;66.16
79067;BME280;68470;50.224;14.348;2023-05-07T07:49:04;99922.44;;;12.12;65.01
79067;BME280;68470;50.224;14.348;2023-05-07T07:51:30;99917.78;;;11.85;65.26
79067;BME280;68470;50.224;14.348;2023-05-07T07:53:56;99930.28;;;11.93;65.87
79067;BME280;68470;50.224;14.348;2023-05-07T07:56:24;99935.44;;;12.16;65.20
79067;BME280;68470;50.224;14.348;2023-05-07T07:58:50;99919.63;;;12.07;64.53
79067;BME280;68470;50.224;14.348;2023-05-07T08:01:16;99938.34;;;11.78;65.92
79067;BME280;68470;50.224;14.348;2023-05-07T08:03:42;99933.50;;;12.49;64.14
79067;BME280;68470;50.224;14.348;2023-05-07T08:06:09;99929.94;;;12.95;62.33
79067;BME280;68470;50.224;14.348;2023-05-07T08:08:35;99940.59;;;13.19;60.78
79067;BME280;68470;50.224;14.348;2023-05-07T08:11:01;99925.66;;;13.20;60.92
79067;BME280;68470;50.224;14.348;2023-05-07T08:13:27;99944.63;;;13.06;61.25
79067;BME280;68470;50.224;14.348;2023-05-07T08:15:53;99942.19;;;13.15;60.63
79067;BME280;68470;50.224;14.348;2023-05-07T08:18:19;99943.22;;;13.51;60.69
79067;BME280;68470;50.224;14.348;2023-05-07T08:20:46;99932.09;;;12.88;61.91
79067;BME280;68470;50.224;14.348;2023-05-07T08:23:12;99932.53;;;13.12;61.43
79067;BME280;68470;50.224;14.348;2023-05-07T08:25:38;99947.84;;;13.35;61.08
79067;BME280;68470;50.224;14.348;2023-05-07T08:28:04;99931.25;;;13.30;61.54
79067;BME280;68470;50.224;14.348;2023-05-07T08:30:30;99956.03;;;12.73;62.51
79067;BME280;68470;50.224;14.348;2023-05-07T08:32:56;99942.16;;;13.10;61.18
79067;BME280;68470;50.224;14.348;2023-05-07T08:35:22;99953.44;;;13.45;59.75
79067;BME280;68470;50.224;14.348;2023-05-07T08:37:48;99953.00;;;13.84;59.21
79067;BME280;68470;50.224;14.348;2023-05-07T08:40:14;99954.13;;;14.03;59.15
79067;BME280;68470;50.224;14.348;2023-05-07T08:42:40;99956.63;;;13.95;58.76
79067;BME280;68470;50.224;14.348;2023-05-07T08:45:09;99950.66;;;13.45;59.63
79067;BME280;68470;50.224;14.348;2023-05-07T08:47:58;99956.88;;;13.78;59.65
79067;BME280;68470;50.224;14.348;2023-05-07T08:50:25;99959.00;;;13.55;60.82
79067;BME280;68470;50.224;14.348;2023-05-07T08:52:51;99958.91;;;13.35;61.56
79067;BME280;68470;50.224;14.348;2023-05-07T08:55:17;99968.06;;;13.41;60.70
79067;BME280;68470;50.224;14.348;2023-05-07T08:57:44;99956.69;;;12.90;62.12
79067;BME280;68470;50.224;14.348;2023-05-07T09:00:10;99962.84;;;13.54;60.78
79067;BME280;68470;50.224;14.348;2023-05-07T09:02:36;99955.31;;;14.53;57.08
79067;BME280;68470;50.224;14.348;2023-05-07T09:05:03;99960.06;;;15.53;54.52
79067;BME280;68470;50.224;14.348;2023-05-07T09:07:30;99963.31;;;16.53;50.86
79067;BME280;68470;50.224;14.348;2023-05-07T09:09:56;99965.75;;;16.31;51.74
79067;BME280;68470;50.224;14.348;2023-05-07T09:12:23;99958.34;;;16.50;50.32
79067;BME280;68470;50.224;14.348;2023-05-07T09:14:49;99960.81;;;15.74;52.83
79067;BME280;68470;50.224;14.348;2023-05-07T09:17:16;99960.97;;;15.92;51.02
79067;BME280;68470;50.224;14.348;2023-05-07T09:19:46;99959.56;;;15.35;53.31
79067;BME280;68470;50.224;14.348;2023-05-07T09:22:12;99951.44;;;15.59;52.75
79067;BME280;68470;50.224;14.348;2023-05-07T09:24:38;99951.25;;;15.95;51.28
79067;BME280;68470;50.224;14.348;2023-05-07T09:27:05;99968.50;;;16.65;49.51
79067;BME280;68470;50.224;14.348;2023-05-07T09:29:31;99954.63;;;17.90;45.95
79067;BME280;68470;50.224;14.348;2023-05-07T09:32:05;99950.41;;;17.92;45.67
79067;BME280;68470;50.224;14.348;2023-05-07T09:34:31;99943.88;;;18.53;44.33
79067;BME280;68470;50.224;14.348;2023-05-07T09:37:00;99964.91;;;17.70;47.71
79067;BME280;68470;50.224;14.348;2023-05-07T09:39:38;99969.19;;;16.86;48.20
79067;BME280;68470;50.224;14.348;2023-05-07T09:42:04;99952.28;;;16.43;49.65
79067;BME280;68470;50.224;14.348;2023-05-07T09:44:35;99960.69;;;15.34;52.23
79067;BME280;68470;50.224;14.348;2023-05-07T09:47:05;99966.31;;;14.94;53.81
79067;BME280;68470;50.224;14.348;2023-05-07T09:49:37;99956.38;;;14.32;56.00
79067;BME280;68470;50.224;14.348;2023-05-07T09:52:05;99960.28;;;14.71;55.32
79067;BME280;68470;50.224;14.348;2023-05-07T09:54:35;99958.56;;;15.01;56.16
79067;BME280;68470;50.224;14.348;2023-05-07T09:57:04;99949.50;;;15.60;52.01
79067;BME280;68470;50.224;14.348;2023-05-07T09:59:34;99968.91;;;15.55;52.61
79067;BME280;68470;50.224;14.348;2023-05-07T10:02:03;99969.34;;;13.96;56.60
79067;BME280;68470;50.224;14.348;2023-05-07T10:04:31;99964.16;;;14.70;54.97
79067;BME280;68470;50.224;14.348;2023-05-07T10:06:58;99954.75;;;15.56;52.92
79067;BME280;68470;50.224;14.348;2023-05-07T10:09:26;99959.59;;;16.34;51.44
79067;BME280;68470;50.224;14.348;2023-05-07T10:11:52;99952.78;;;16.50;50.57
79067;BME280;68470;50.224;14.348;2023-05-07T10:14:21;99961.91;;;16.90;49.81
79067;BME280;68470;50.224;14.348;2023-05-07T10:16:47;99974.59;;;17.01;48.71
79067;BME280;68470;50.224;14.348;2023-05-07T10:19:17;99978.09;;;15.50;53.03
79067;BME280;68470;50.224;14.348;2023-05-07T10:21:48;99973.50;;;15.10;55.10
79067;BME280;68470;50.224;14.348;2023-05-07T10:24:21;99958.75;;;15.25;53.68
79067;BME280;68470;50.224;14.348;2023-05-07T10:26:50;99965.59;;;15.63;51.87
79067;BME280;68470;50.224;14.348;2023-05-07T10:29:39;99977.25;;;17.11;48.29
79067;BME280;68470;50.224;14.348;2023-05-07T10:32:49;99971.00;;;16.28;50.99
79067;BME280;68470;50.224;14.348;2023-05-07T10:35:38;99953.75;;;16.99;48.67
79067;BME280;68470;50.224;14.348;2023-05-07T10:38:07;99937.50;;;17.78;47.34
79067;BME280;68470;50.224;14.348;2023-05-07T10:40:33;99950.63;;;17.53;47.32
79067;BME280;68470;50.224;14.348;2023-05-07T10:43:00;99952.16;;;15.16;53.20
79067;BME280;68470;50.224;14.348;2023-05-07T10:45:28;99955.66;;;15.47;53.26
79067;BME280;68470;50.224;14.348;2023-05-07T10:48:12;99947.53;;;15.66;53.75
79067;BME280;68470;50.224;14.348;2023-05-07T10:50:43;99943.06;;;15.70;53.21
79067;BME280;68470;50.224;14.348;2023-05-07T10:55:48;99956.53;;;16.36;51.18
79067;BME280;68470;50.224;14.348;2023-05-07T10:58:29;99953.69;;;17.28;49.27
79067;BME280;68470;50.224;14.348;2023-05-07T11:00:59;99940.22;;;18.20;47.72
79067;BME280;68470;50.224;14.348;2023-05-07T11:03:26;99948.91;;;17.57;46.56
79067;BME280;68470;50.224;14.348;2023-05-07T11:11:17;99945.44;;;18.92;44.89
79067;BME280;68470;50.224;14.348;2023-05-07T11:13:44;99957.97;;;16.67;49.27
79067;BME280;68470;50.224;14.348;2023-05-07T11:16:24;99952.94;;;15.91;52.22
79067;BME280;68470;50.224;14.348;2023-05-07T11:18:53;99942.84;;;14.56;56.01
79067;BME280;68470;50.224;14.348;2023-05-07T11:21:38;99954.16;;;14.74;nan
79067;BME280;68470;50.224;14.348;2023-05-07T11:24:08;99965.47;;;15.14;55.80
79067;BME280;68470;50.224;14.348;2023-05-07T11:26:46;99953.84;;;14.10;58.95
79067;BME280;68470;50.224;14.348;2023-05-07T11:29:20;99968.72;;;13.68;60.44
79067;BME280;68470;50.224;14.348;2023-05-07T11:31:51;99973.41;;;13.68;61.17
79067;BME280;68470;50.224;14.348;2023-05-07T11:34:24;99958.47;;;13.69;61.06
79067;BME280;68470;50.224;14.348;2023-05-07T11:36:51;99966.34;;;14.18;59.45
79067;BME280;68470;50.224;14.348;2023-05-07T11:39:30;99956.38;;;14.11;60.13
79067;BME280;68470;50.224;14.348;2023-05-07T11:42:01;99969.13;;;14.33;58.20
79067;BME280;68470;50.224;14.348;2023-05-07T11:44:44;99971.56;;;15.11;55.89
79067;BME280;68470;50.224;14.348;2023-05-07T11:47:17;99959.41;;;15.76;53.90
79067;BME280;68470;50.224;14.348;2023-05-07T11:49:43;99971.59;;;15.85;54.43
79067;BME280;68470;50.224;14.348;2023-05-07T11:52:12;99953.06;;;14.75;56.17
79067;BME280;68470;50.224;14.348;2023-05-07T11:54:38;99975.25;;;14.81;57.11
79067;BME280;68470;50.224;14.348;2023-05-07T11:57:04;99964.03;;;15.31;55.85
79067;BME280;68470;50.224;14.348;2023-05-07T11:59:38;99966.75;;;15.47;55.40
79067;BME280;68470;50.224;14.348;2023-05-07T12:02:06;99971.00;;;15.09;56.30
79067;BME280;68470;50.224;14.348;2023-05-07T12:04:32;99970.41;;;15.27;55.62
79067;BME280;68470;50.224;14.348;2023-05-07T12:06:58;99952.59;;;16.03;53.12
79067;BME280;68470;50.224;14.348;2023-05-07T12:09:24;99953.75;;;15.97;54.79
79067;BME280;68470;50.224;14.348;2023-05-07T12:11:52;99965.91;;;15.46;55.88
79067;BME280;68470;50.224;14.348;2023-05-07T12:14:18;99975.63;;;16.03;54.52
79067;BME280;68470;50.224;14.348;2023-05-07T12:16:44;99977.81;;;15.52;54.62
79067;BME280;68470;50.224;14.348;2023-05-07T12:19:11;99971.03;;;15.83;53.66
79067;BME280;68470;50.224;14.348;2023-05-07T12:21:40;99980.13;;;15.94;53.12
79067;BME280;68470;50.224;14.348;2023-05-07T12:24:06;99965.19;;;15.05;55.86
79067;BME280;68470;50.224;14.348;2023-05-07T12:26:38;99979.16;;;16.19;53.56
79067;BME280;68470;50.224;14.348;2023-05-07T12:29:04;99981.94;;;17.64;48.94
79067;BME280;68470;50.224;14.348;2023-05-07T12:31:32;99985.41;;;17.32;49.27
79067;BME280;68470;50.224;14.348;2023-05-07T12:33:58;99987.41;;;16.68;50.63
79067;BME280;68470;50.224;14.348;2023-05-07T12:36:23;99984.69;;;16.19;51.57
79067;BME280;68470;50.224;14.348;2023-05-07T12:38:50;99986.56;;;16.34;51.44
79067;BME280;68470;50.224;14.348;2023-05-07T12:41:17;99983.47;;;16.74;50.28
79067;BME280;68470;50.224;14.348;2023-05-07T12:43:44;99969.91;;;16.68;50.29
79067;BME280;68470;50.224;14.348;2023-05-07T12:46:11;99972.69;;;16.68;49.50
79067;BME280;68470;50.224;14.348;2023-05-07T12:48:43;99975.28;;;16.54;49.69
79067;BME280;68470;50.224;14.348;2023-05-07T12:51:12;99969.13;;;17.87;46.59
79067;BME280;68470;50.224;14.348;2023-05-07T12:53:42;99974.22;;;17.80;47.85
79067;BME280;68470;50.224;14.348;2023-05-07T12:56:09;99973.13;;;17.81;45.70
79067;BME280;68470;50.224;14.348;2023-05-07T12:58:35;99971.16;;;19.49;41.31
79067;BME280;68470;50.224;14.348;2023-05-07T13:01:07;99972.13;;;17.24;46.35
79067;BME280;68470;50.224;14.348;2023-05-07T13:03:37;99972.13;;;16.66;48.70
79067;BME280;68470;50.224;14.348;2023-05-07T13:06:08;99980.53;;;16.55;49.07
79067;BME280;68470;50.224;14.348;2023-05-07T13:08:40;99976.50;;;17.30;47.58
79067;BME280;68470;50.224;14.348;2023-05-07T13:11:08;99983.06;;;16.52;49.22